首页
METAR-TAF:

METAR-TAF

机场 :

Cayo Coco, 古巴

纬度: 22-27-40N, 经度: 078-19-42W, 海拔: 4米

当前天气观测

该预报发布于44分钟前的20:50 UTC
风速6节,风向东北
温度 30°C
湿度 75%
气压 1015 hPa
能見度: 9000
多云层高于2000英尺, 积雨云.
雷暴,

METAR: MUCC 252050Z 04006KT 9000 TS BKN020CB 30/25 Q1015

时间: 17:34 (21:34 UTC)

预报

该预报发布于4小时和34分钟前的17:00 UTC
预报有效从25日的 18点(UTC)到 26日的 18点(UTC)
风速5节,风向多变
能見度: 9000
散云层高于2000英尺

TAF: MUCC 251700Z 2518/2618 VRB05KT 9000 SCT020

超过4000个机场的气象观测和天气预报(METAR&TAF报告)。

可查询的气象台以黄色和红色小点在地图上表示。

将鼠标移到小点上方,可查看气象台名称。

然后点击查看天气观测和预报。

如需切换地图:点击带黑十字的绿色按钮放大地图;点击带横线的绿色按钮缩小地图;或者点击绿色箭头查看邻近地区的地图。


METAR-TAF: